Time;durP1;ratioP1;P1;durP2;ratioP2;P2;SDS_P1;SDS_P2;PMS_P1;PMS_P2;Temp;Humidity;BMP_temperature;BMP_pressure;BME280_temperature;BME280_humidity;BME280_pressure;Samples;Min_cycle;Max_cycle;Signal;HPM_P1;HPM_P2
2022/03/10 00:03:45;;;;;;;17.77;9.10;;;0.40;99.90;;;;;;7314496;32;20179;-61
2022/03/10 00:07:47;;;;;;;16.95;8.73;;;0.30;99.90;;;;;;7316315;32;20209;-62
2022/03/10 00:11:49;;;;;;;15.90;8.90;;;0.30;99.90;;;;;;7317440;32;20116;-60
2022/03/10 00:15:51;;;;;;;18.35;9.20;;;0.30;99.90;;;;;;7313897;32;20129;-60
2022/03/10 00:19:52;;;;;;;15.48;8.82;;;0.20;99.90;;;;;;7311748;32;20202;-61
2022/03/10 00:23:54;;;;;;;17.33;9.60;;;0.20;99.90;;;;;;7313647;32;20145;-60
2022/03/10 00:27:56;;;;;;;17.42;9.18;;;0.20;99.90;;;;;;7318487;32;20138;-61
2022/03/10 00:31:57;;;;;;;16.37;9.25;;;0.10;99.90;;;;;;7310283;32;20202;-60
2022/03/10 00:35:59;;;;;;;18.00;9.73;;;0.00;99.90;;;;;;7312777;32;20202;-60
2022/03/10 00:40:01;;;;;;;18.33;9.82;;;0.10;99.90;;;;;;7310067;32;20206;-61
2022/03/10 00:44:02;;;;;;;15.73;8.80;;;0.00;99.90;;;;;;7312778;32;20440;-60
2022/03/10 00:48:04;;;;;;;15.60;9.13;;;0.00;99.90;;;;;;7316462;32;20165;-60
2022/03/10 00:52:06;;;;;;;17.50;9.77;;;0.00;99.90;;;;;;7314667;32;20117;-60
2022/03/10 00:56:08;;;;;;;16.10;9.25;;;0.00;99.90;;;;;;7312863;32;20637;-59
2022/03/10 01:00:11;;;;;;;16.05;9.05;;;-0.10;99.90;;;;;;7310093;32;20104;-60
2022/03/10 01:04:13;;;;;;;19.23;10.20;;;-0.10;99.90;;;;;;7315143;32;20199;-60
2022/03/10 01:08:15;;;;;;;19.17;9.88;;;-0.20;99.90;;;;;;7314580;32;20158;-60
2022/03/10 01:12:17;;;;;;;17.77;9.80;;;-0.20;99.90;;;;;;7310392;32;20138;-59
2022/03/10 01:16:19;;;;;;;17.55;9.05;;;-0.20;99.90;;;;;;7312617;32;20120;-60
2022/03/10 01:20:23;;;;;;;15.73;9.15;;;-0.20;99.90;;;;;;7312182;32;20269;-60
2022/03/10 01:24:24;;;;;;;15.35;9.38;;;-0.20;99.90;;;;;;7313330;32;20178;-60
2022/03/10 01:28:26;;;;;;;14.23;8.55;;;-0.20;99.90;;;;;;7312486;32;20575;-60
2022/03/10 01:32:28;;;;;;;20.12;9.85;;;-0.30;99.90;;;;;;7314070;32;20191;-60
2022/03/10 01:36:29;;;;;;;17.30;9.40;;;-0.30;99.90;;;;;;7310723;32;20110;-60
2022/03/10 01:40:32;;;;;;;20.58;10.07;;;-0.30;99.90;;;;;;7311710;32;20099;-60
2022/03/10 01:44:34;;;;;;;15.10;8.68;;;-0.40;99.90;;;;;;7311285;32;20104;-59
2022/03/10 01:48:36;;;;;;;16.20;9.68;;;-0.40;99.90;;;;;;7309334;32;20971;-60
2022/03/10 01:52:38;;;;;;;20.65;9.55;;;-0.40;99.90;;;;;;7305775;32;20825;-60
2022/03/10 01:56:41;;;;;;;18.80;9.80;;;-0.40;99.90;;;;;;7307297;32;20107;-60
2022/03/10 02:00:43;;;;;;;15.95;9.13;;;-0.40;99.90;;;;;;7305965;32;20108;-60
2022/03/10 02:04:45;;;;;;;19.60;10.45;;;-0.40;99.90;;;;;;7308213;32;20168;-61
2022/03/10 02:13:07;;;;;;;18.77;9.48;;;-0.40;99.90;;;;;;7312027;32;20127;-58
2022/03/10 02:17:21;;;;;;;20.17;10.02;;;-0.40;99.90;;;;;;7311171;32;20104;-59
2022/03/10 02:21:24;;;;;;;18.40;9.90;;;-0.50;99.90;;;;;;7314586;32;20166;-60
2022/03/10 02:25:27;;;;;;;20.90;10.20;;;-0.50;99.90;;;;;;7319340;32;20217;-59
2022/03/10 02:29:29;;;;;;;21.08;9.80;;;-0.60;99.90;;;;;;7314698;32;20232;-59
2022/03/10 02:33:31;;;;;;;20.08;10.23;;;-0.60;99.90;;;;;;7311784;32;20107;-59
2022/03/10 02:37:32;;;;;;;16.95;9.23;;;-0.60;99.90;;;;;;7318996;32;20234;-60
2022/03/10 02:41:34;;;;;;;17.30;9.25;;;-0.60;99.90;;;;;;7318550;32;20139;-60
2022/03/10 02:45:36;;;;;;;17.62;10.23;;;-0.60;99.90;;;;;;7308554;32;20153;-60
2022/03/10 02:49:39;;;;;;;19.33;11.02;;;-0.60;99.90;;;;;;7319542;32;20100;-60
2022/03/10 02:53:41;;;;;;;18.40;9.63;;;-0.60;99.90;;;;;;7316342;32;20696;-60
2022/03/10 02:57:42;;;;;;;15.98;9.00;;;-0.60;99.90;;;;;;7319082;32;20100;-61
2022/03/10 03:01:44;;;;;;;16.58;9.30;;;-0.60;99.90;;;;;;7317232;32;20111;-60
2022/03/10 03:05:46;;;;;;;17.08;10.02;;;-0.60;99.90;;;;;;7314634;32;20227;-61
2022/03/10 03:09:48;;;;;;;18.27;10.82;;;-0.70;99.90;;;;;;7317896;32;20165;-60
2022/03/10 03:13:49;;;;;;;20.77;10.13;;;-0.70;99.90;;;;;;7317618;32;20149;-60
2022/03/10 03:17:52;;;;;;;19.15;10.18;;;-0.70;99.90;;;;;;7318531;32;20210;-60
2022/03/10 03:21:54;;;;;;;18.42;10.40;;;-0.70;99.90;;;;;;7318216;32;20123;-60
2022/03/10 03:25:56;;;;;;;21.15;10.45;;;-0.80;99.90;;;;;;7318670;32;20126;-60
2022/03/10 03:29:58;;;;;;;20.17;10.65;;;-0.80;99.90;;;;;;7313691;32;20672;-61
2022/03/10 03:34:00;;;;;;;19.98;11.00;;;-0.80;99.90;;;;;;7317324;32;20196;-60
2022/03/10 03:38:02;;;;;;;18.90;10.70;;;-0.80;99.90;;;;;;7314850;32;20822;-61
2022/03/10 03:42:03;;;;;;;19.30;10.90;;;-0.80;99.90;;;;;;7313557;32;20217;-60
2022/03/10 03:46:05;;;;;;;21.77;11.05;;;-0.80;99.90;;;;;;7310769;32;20104;-62
2022/03/10 03:50:07;;;;;;;19.40;10.05;;;-0.80;99.90;;;;;;7308559;32;20107;-61
2022/03/10 03:54:09;;;;;;;21.35;11.00;;;-0.80;99.90;;;;;;7313357;32;20112;-62
2022/03/10 03:58:19;;;;;;;23.85;11.48;;;-0.80;99.90;;;;;;7316696;32;20473;-61
2022/03/10 04:02:20;;;;;;;20.08;10.77;;;-0.80;99.90;;;;;;7311141;32;20586;-62
2022/03/10 04:06:22;;;;;;;20.52;10.70;;;-0.80;99.90;;;;;;7310204;32;20122;-61
2022/03/10 04:10:25;;;;;;;18.12;9.65;;;-0.80;99.90;;;;;;7315351;32;20249;-61
2022/03/10 04:14:26;;;;;;;21.50;10.82;;;-0.80;99.90;;;;;;7315321;32;20143;-62
2022/03/10 04:18:29;;;;;;;21.48;10.80;;;-0.80;99.90;;;;;;7315836;32;20198;-61
2022/03/10 04:22:31;;;;;;;23.25;11.40;;;-0.90;99.90;;;;;;7315295;32;20108;-61
2022/03/10 04:26:33;;;;;;;21.62;11.05;;;-0.90;99.90;;;;;;7317821;32;20145;-61
2022/03/10 04:30:37;;;;;;;20.92;10.70;;;-1.00;99.90;;;;;;7314720;32;20107;-61
2022/03/10 04:34:38;;;;;;;22.92;11.55;;;-1.00;99.90;;;;;;7313124;32;20302;-62
2022/03/10 04:38:40;;;;;;;19.73;10.93;;;-1.10;99.90;;;;;;7309255;32;20774;-61
2022/03/10 04:42:42;;;;;;;19.85;11.98;;;-1.00;99.90;;;;;;7317733;32;20108;-62
2022/03/10 04:46:44;;;;;;;20.02;10.55;;;-1.00;99.90;;;;;;7313619;32;20149;-62
2022/03/10 04:50:47;;;;;;;23.27;10.93;;;-1.00;99.90;;;;;;7313563;32;20186;-61
2022/03/10 04:54:49;;;;;;;20.70;10.80;;;-1.10;99.90;;;;;;7317075;32;20184;-61
2022/03/10 04:58:51;;;;;;;18.15;10.40;;;-1.10;99.90;;;;;;7315464;32;20268;-60
2022/03/10 05:02:52;;;;;;;20.52;11.48;;;-1.10;99.90;;;;;;7308949;32;20145;-61
2022/03/10 05:06:54;;;;;;;22.80;12.15;;;-1.10;99.90;;;;;;7314058;32;20134;-61
2022/03/10 05:10:57;;;;;;;18.67;10.50;;;-1.10;99.90;;;;;;7310354;32;20802;-61
2022/03/10 05:15:01;;;;;;;18.15;10.65;;;-1.10;99.90;;;;;;7305802;32;21343;-60
2022/03/10 05:19:03;;;;;;;21.05;11.20;;;-1.10;99.90;;;;;;7309187;32;20134;-60
2022/03/10 05:23:05;;;;;;;18.23;10.95;;;-1.10;99.90;;;;;;7311394;32;20234;-62
2022/03/10 05:27:07;;;;;;;18.15;10.02;;;-1.10;99.90;;;;;;7311325;32;20126;-62
2022/03/10 05:31:29;;;;;;;21.37;11.52;;;-1.10;99.90;;;;;;7310960;32;20268;-62
2022/03/10 05:35:31;;;;;;;19.85;10.68;;;-1.20;99.90;;;;;;7301662;32;20527;-60
2022/03/10 05:39:33;;;;;;;20.70;11.52;;;-1.20;99.90;;;;;;7315410;32;20758;-61
2022/03/10 05:43:35;;;;;;;20.58;11.07;;;-1.20;99.90;;;;;;7305419;32;20127;-59
2022/03/10 05:47:38;;;;;;;21.17;11.40;;;-1.20;99.90;;;;;;7314176;32;20134;-61
2022/03/10 05:51:40;;;;;;;21.70;11.30;;;-1.20;99.90;;;;;;7312976;32;20111;-59
2022/03/10 05:55:41;;;;;;;18.80;11.00;;;-1.20;99.90;;;;;;7309781;32;20119;-60
2022/03/10 05:59:43;;;;;;;24.37;12.23;;;-1.20;99.90;;;;;;7316662;32;20104;-60
2022/03/10 06:03:45;;;;;;;22.05;11.43;;;-1.20;99.90;;;;;;7306057;32;20150;-60
2022/03/10 06:07:47;;;;;;;23.23;12.15;;;-1.10;99.90;;;;;;7310687;32;20456;-63
2022/03/10 06:11:48;;;;;;;30.88;13.90;;;-1.20;99.90;;;;;;7313071;32;20194;-61
2022/03/10 06:15:50;;;;;;;19.42;11.05;;;-1.20;99.90;;;;;;7307506;32;20468;-62
2022/03/10 06:19:52;;;;;;;21.52;11.38;;;-1.20;99.90;;;;;;7311483;32;20184;-63
2022/03/10 06:23:55;;;;;;;20.33;10.45;;;-1.10;99.90;;;;;;7311035;32;20141;-61
2022/03/10 06:27:56;;;;;;;20.10;10.23;;;-1.10;99.90;;;;;;7308597;32;20131;-60
2022/03/10 06:31:58;;;;;;;19.17;11.07;;;-1.10;99.90;;;;;;7306744;32;20122;-62
2022/03/10 06:36:00;;;;;;;20.27;10.40;;;-1.00;99.90;;;;;;7312954;32;20123;-62
2022/03/10 06:40:02;;;;;;;19.37;10.40;;;-1.00;99.90;;;;;;7313634;32;20112;-61
2022/03/10 06:44:12;;;;;;;22.33;11.48;;;-0.90;99.90;;;;;;7308799;32;20127;-63
2022/03/10 06:48:14;;;;;;;20.10;11.40;;;-0.90;99.90;;;;;;7309141;32;20127;-62
2022/03/10 06:52:19;;;;;;;22.20;10.55;;;-0.90;99.90;;;;;;7308414;32;20215;-62
2022/03/10 06:56:21;;;;;;;19.27;10.40;;;-0.80;99.90;;;;;;7308940;32;20131;-62
2022/03/10 07:00:24;;;;;;;23.60;12.90;;;-0.70;99.90;;;;;;7308314;32;20330;-63
2022/03/10 07:04:26;;;;;;;25.58;11.20;;;-0.60;99.90;;;;;;7304878;32;20151;-62
2022/03/10 07:08:27;;;;;;;22.37;10.60;;;-0.40;99.90;;;;;;7304198;32;20104;-62
2022/03/10 07:12:29;;;;;;;23.55;11.90;;;-0.40;99.90;;;;;;7310158;32;20254;-62
2022/03/10 07:16:31;;;;;;;22.27;11.38;;;-0.20;99.90;;;;;;7316456;32;20190;-62
2022/03/10 07:20:33;;;;;;;22.23;11.63;;;-0.10;99.90;;;;;;7315052;32;20672;-61
2022/03/10 07:24:34;;;;;;;23.55;11.45;;;0.00;99.90;;;;;;7313711;32;20761;-61
2022/03/10 07:28:36;;;;;;;23.85;11.80;;;0.20;99.90;;;;;;7317613;32;20194;-61
2022/03/10 07:32:38;;;;;;;23.17;10.10;;;0.60;99.90;;;;;;7306228;32;21911;-61
2022/03/10 07:36:42;;;;;;;23.58;10.57;;;0.90;99.90;;;;;;7314353;32;20672;-62
2022/03/10 07:40:44;;;;;;;18.35;9.68;;;1.20;99.90;;;;;;7314193;32;20253;-62
2022/03/10 07:44:45;;;;;;;19.23;9.52;;;1.60;99.90;;;;;;7309651;32;20167;-61
2022/03/10 07:48:47;;;;;;;14.75;8.75;;;2.10;99.90;;;;;;7313797;32;20402;-61
2022/03/10 07:52:49;;;;;;;16.10;8.98;;;2.60;99.90;;;;;;7316887;32;20206;-59
2022/03/10 07:56:51;;;;;;;16.55;9.07;;;3.10;99.90;;;;;;7307921;32;20222;-59
2022/03/10 08:00:57;;;;;;;15.88;8.98;;;3.70;99.90;;;;;;7314442;32;20103;-59
2022/03/10 08:04:59;;;;;;;20.88;9.25;;;4.30;99.90;;;;;;7310397;32;20304;-61
2022/03/10 08:09:02;;;;;;;16.35;9.30;;;5.00;99.90;;;;;;7315379;32;20228;-59
2022/03/10 08:13:03;;;;;;;17.05;9.68;;;5.30;99.90;;;;;;7313663;32;20207;-61
2022/03/10 08:17:05;;;;;;;15.73;9.60;;;5.70;99.90;;;;;;7309922;32;20154;-61
2022/03/10 08:21:07;;;;;;;17.67;9.68;;;6.00;99.90;;;;;;7311811;32;20104;-60
2022/03/10 08:25:09;;;;;;;18.15;9.48;;;6.30;99.90;;;;;;7311406;32;20221;-61
2022/03/10 08:29:11;;;;;;;17.98;9.63;;;6.50;99.90;;;;;;7308575;32;20216;-61
2022/03/10 08:33:13;;;;;;;16.25;9.38;;;6.70;99.50;;;;;;7312694;32;20104;-60
2022/03/10 08:37:14;;;;;;;19.20;10.50;;;6.90;97.90;;;;;;7309945;32;20132;-59
2022/03/10 08:41:17;;;;;;;18.58;10.98;;;7.70;90.50;;;;;;7312667;32;20116;-61
2022/03/10 08:45:19;;;;;;;18.05;10.48;;;7.90;89.80;;;;;;7315206;32;20959;-60
2022/03/10 08:49:21;;;;;;;16.65;10.45;;;8.00;91.00;;;;;;7311698;32;20186;-61
2022/03/10 08:53:23;;;;;;;17.70;11.30;;;8.20;88.60;;;;;;7315326;32;20121;-60
2022/03/10 08:57:25;;;;;;;19.33;11.88;;;9.10;82.00;;;;;;7306313;32;20111;-61
2022/03/10 09:01:26;;;;;;;19.02;11.55;;;9.80;70.70;;;;;;7306949;32;20132;-61
2022/03/10 09:05:29;;;;;;;20.27;11.32;;;10.50;68.60;;;;;;7303635;32;20131;-62
2022/03/10 09:09:30;;;;;;;21.48;12.05;;;11.30;70.30;;;;;;7308244;32;20108;-61
2022/03/10 09:13:32;;;;;;;20.17;13.13;;;12.10;65.60;;;;;;7308746;32;20199;-61
2022/03/10 09:17:34;;;;;;;21.27;12.98;;;12.80;60.70;;;;;;7312184;32;20717;-60
2022/03/10 09:21:36;;;;;;;30.00;13.43;;;13.30;54.80;;;;;;7313211;32;20100;-61
2022/03/10 09:25:38;;;;;;;23.83;14.82;;;14.00;52.20;;;;;;7311301;32;20111;-61
2022/03/10 09:29:40;;;;;;;19.58;13.02;;;14.30;49.50;;;;;;7307729;32;20131;-61
2022/03/10 09:33:42;;;;;;;22.10;14.10;;;14.80;48.70;;;;;;7308221;32;20132;-60
2022/03/10 09:37:44;;;;;;;21.85;14.35;;;15.00;48.10;;;;;;7308307;32;20147;-62
2022/03/10 09:41:46;;;;;;;22.30;14.55;;;16.20;45.90;;;;;;7304062;32;20145;-61
2022/03/10 09:45:52;;;;;;;21.23;14.32;;;16.90;49.10;;;;;;7296962;32;20151;-62
2022/03/10 09:49:54;;;;;;;21.70;14.38;;;17.40;45.70;;;;;;7306115;32;20150;-62
2022/03/10 09:53:56;;;;;;;24.48;14.55;;;17.70;43.80;;;;;;7297657;32;20138;-62
2022/03/10 09:58:01;;;;;;;20.95;15.13;;;18.50;41.00;;;;;;7305245;32;20122;-60
2022/03/10 10:02:04;;;;;;;21.52;14.95;;;18.10;39.60;;;;;;7302454;32;20522;-62
2022/03/10 10:06:06;;;;;;;20.75;14.32;;;18.00;39.80;;;;;;7307341;32;20107;-63
2022/03/10 10:10:10;;;;;;;20.77;14.50;;;18.20;38.70;;;;;;7308426;32;20130;-62
2022/03/10 10:14:14;;;;;;;20.40;14.93;;;18.40;37.90;;;;;;7310365;32;20241;-63
2022/03/10 10:18:15;;;;;;;23.77;14.65;;;19.50;38.50;;;;;;7310731;32;20131;-64
2022/03/10 10:22:37;;;;;;;21.70;15.13;;;20.00;37.10;;;;;;7301353;32;20191;-60
2022/03/10 10:26:39;;;;;;;19.35;14.00;;;20.30;35.60;;;;;;7315085;32;20233;-60
2022/03/10 10:31:08;;;;;;;20.98;14.45;;;20.60;37.30;;;;;;7308712;32;20104;-64
2022/03/10 10:35:20;;;;;;;21.00;15.00;;;21.50;35.70;;;;;;7304351;32;20285;-61
2022/03/10 10:39:24;;;;;;;22.85;15.25;;;22.30;33.50;;;;;;7309950;32;20799;-61
2022/03/10 10:43:40;;;;;;;20.70;15.20;;;22.40;32.70;;;;;;7309278;32;23040;-62
2022/03/10 10:48:05;;;;;;;19.23;14.40;;;21.60;33.30;;;;;;7309428;32;20204;-61
2022/03/10 10:52:18;;;;;;;22.77;15.40;;;20.70;36.10;;;;;;7313962;32;20564;-61
2022/03/10 10:56:19;;;;;;;21.73;15.70;;;18.40;35.40;;;;;;7315791;32;20662;-61
2022/03/10 11:00:22;;;;;;;22.98;14.23;;;16.90;38.60;;;;;;7318047;32;20118;-61
2022/03/10 11:04:26;;;;;;;25.73;15.20;;;16.30;40.40;;;;;;7312783;32;20157;-61
2022/03/10 11:08:30;;;;;;;21.20;14.50;;;16.00;42.50;;;;;;7313894;32;20150;-63
2022/03/10 11:12:39;;;;;;;24.50;15.63;;;15.80;42.40;;;;;;7315799;32;20118;-61
2022/03/10 11:16:43;;;;;;;21.52;13.73;;;15.30;41.80;;;;;;7316130;32;20232;-60
2022/03/10 11:20:49;;;;;;;29.33;14.50;;;15.20;42.70;;;;;;7314421;32;20138;-60
2022/03/10 11:25:13;;;;;;;23.00;13.63;;;15.20;43.30;;;;;;7310370;32;20275;-61
2022/03/10 11:29:23;;;;;;;19.95;11.98;;;15.00;43.60;;;;;;7313968;32;20119;-60
2022/03/10 11:33:32;;;;;;;20.30;13.43;;;14.90;44.80;;;;;;7313745;32;20111;-60
2022/03/10 11:37:54;;;;;;;24.70;14.23;;;15.40;43.10;;;;;;7304305;32;20134;-62
2022/03/10 11:42:03;;;;;;;19.58;13.57;;;15.90;41.80;;;;;;7311353;32;20645;-62
2022/03/10 11:46:17;;;;;;;19.85;12.73;;;16.60;40.50;;;;;;7308120;32;20780;-62
2022/03/10 11:50:23;;;;;;;21.10;13.38;;;17.40;39.70;;;;;;7316053;32;20829;-61
2022/03/10 11:54:27;;;;;;;18.45;13.40;;;18.00;38.10;;;;;;7310644;32;20169;-62
2022/03/10 11:58:36;;;;;;;18.90;13.68;;;18.60;36.30;;;;;;7308324;32;20490;-62
2022/03/10 12:02:40;;;;;;;18.92;13.93;;;19.30;35.30;;;;;;7310898;32;20203;-61
2022/03/10 12:06:57;;;;;;;18.08;13.55;;;19.60;33.50;;;;;;7323624;32;20111;-60
2022/03/10 12:11:00;;;;;;;17.48;12.85;;;19.50;33.30;;;;;;7311531;32;20210;-62
2022/03/10 12:15:25;;;;;;;20.25;12.65;;;20.20;33.70;;;;;;7313576;32;20114;-62
2022/03/10 12:20:20;;;;;;;19.17;12.50;;;19.20;33.30;;;;;;7313888;32;20168;-62
2022/03/10 12:24:33;;;;;;;16.12;12.32;;;20.00;33.00;;;;;;7305158;32;20104;-62
2022/03/10 12:28:37;;;;;;;16.23;11.40;;;19.20;33.50;;;;;;7308890;32;21586;-62
2022/03/10 12:32:45;;;;;;;15.95;11.70;;;19.80;33.70;;;;;;7313653;32;20767;-62
2022/03/10 12:36:50;;;;;;;16.85;11.20;;;19.40;33.00;;;;;;7303425;32;20145;-62
2022/03/10 12:40:55;;;;;;;15.68;11.12;;;18.70;33.30;;;;;;7309727;32;20104;-62
2022/03/10 12:44:57;;;;;;;18.58;11.50;;;18.20;35.10;;;;;;7306338;32;20191;-62
2022/03/10 12:49:07;;;;;;;14.40;10.23;;;18.20;35.50;;;;;;7305969;32;20112;-62
2022/03/10 12:53:10;;;;;;;15.73;10.38;;;17.90;34.80;;;;;;7295426;32;20348;-59
2022/03/10 12:57:12;;;;;;;14.25;10.57;;;17.90;35.80;;;;;;7308174;32;20150;-61
2022/03/10 13:01:14;;;;;;;14.63;10.10;;;17.90;34.60;;;;;;7309069;32;20134;-61
2022/03/10 13:05:20;;;;;;;15.13;9.18;;;18.20;35.30;;;;;;7314210;32;20157;-61
2022/03/10 13:09:23;;;;;;;15.25;9.15;;;18.00;35.60;;;;;;7311793;32;20530;-60
2022/03/10 13:13:29;;;;;;;11.40;8.38;;;17.70;35.10;;;;;;7297329;32;20333;-60
2022/03/10 13:17:32;;;;;;;14.57;8.70;;;17.70;36.10;;;;;;7315509;32;20215;-61
2022/03/10 13:21:33;;;;;;;11.85;7.28;;;18.00;35.00;;;;;;7313232;32;20116;-62
2022/03/10 13:25:37;;;;;;;10.63;6.53;;;18.30;34.10;;;;;;7311780;32;20139;-60
2022/03/10 13:29:47;;;;;;;9.88;6.10;;;18.40;33.30;;;;;;7314090;32;20103;-61
2022/03/10 13:33:50;;;;;;;12.95;6.28;;;18.60;33.40;;;;;;7310090;32;20225;-61
2022/03/10 13:37:52;;;;;;;8.77;5.32;;;18.90;33.10;;;;;;7310096;32;20115;-59
2022/03/10 13:41:55;;;;;;;6.62;5.28;;;19.10;33.90;;;;;;7313625;32;20215;-58
2022/03/10 13:46:11;;;;;;;6.00;4.97;;;19.40;33.30;;;;;;7313191;32;20283;-57
2022/03/10 13:50:15;;;;;;;7.93;4.00;;;19.60;32.90;;;;;;7308875;32;20625;-58
2022/03/10 13:54:18;;;;;;;10.77;4.55;;;20.20;32.30;;;;;;7308758;32;20133;-61
2022/03/10 13:58:21;;;;;;;6.95;4.87;;;20.80;32.30;;;;;;7310364;32;20623;-60
2022/03/10 14:02:24;;;;;;;7.05;5.43;;;20.90;31.70;;;;;;7306727;32;20330;-60
2022/03/10 14:06:26;;;;;;;6.68;5.15;;;21.30;31.80;;;;;;7314189;32;20141;-60
2022/03/10 14:10:31;;;;;;;5.62;4.05;;;21.70;32.50;;;;;;7314698;32;20146;-58
2022/03/10 14:14:36;;;;;;;5.43;4.00;;;21.70;31.40;;;;;;7308659;32;20769;-59
2022/03/10 14:18:46;;;;;;;6.18;3.62;;;21.80;31.70;;;;;;7309305;32;20100;-59
2022/03/10 14:22:48;;;;;;;5.05;3.33;;;21.50;31.20;;;;;;7318460;32;20249;-61
2022/03/10 14:26:50;;;;;;;3.30;2.60;;;21.70;30.40;;;;;;7314753;32;20258;-59
2022/03/10 14:30:53;;;;;;;5.32;3.33;;;21.70;31.00;;;;;;7313263;32;20220;-58
2022/03/10 14:34:56;;;;;;;4.20;3.10;;;21.90;29.80;;;;;;7316805;32;20130;-59
2022/03/10 14:38:58;;;;;;;4.40;3.00;;;22.00;29.80;;;;;;7309152;32;20134;-62
2022/03/10 14:43:01;;;;;;;3.92;3.42;;;21.60;29.90;;;;;;7312500;32;20149;-62
2022/03/10 14:47:03;;;;;;;4.10;3.08;;;21.70;29.60;;;;;;7311812;32;20192;-62
2022/03/10 14:51:05;;;;;;;3.90;3.10;;;21.00;29.90;;;;;;7316824;32;20100;-60
2022/03/10 14:55:08;;;;;;;5.20;3.37;;;20.30;29.70;;;;;;7318022;32;20722;-60
2022/03/10 14:59:10;;;;;;;4.15;2.50;;;19.10;32.90;;;;;;7317192;32;20225;-62
2022/03/10 15:03:12;;;;;;;3.42;2.50;;;18.10;33.90;;;;;;7316598;32;20563;-62
2022/03/10 15:07:14;;;;;;;5.37;2.97;;;17.30;34.20;;;;;;7314418;32;20155;-62
2022/03/10 15:11:16;;;;;;;4.90;3.08;;;16.70;36.10;;;;;;7314940;32;20104;-62
2022/03/10 15:15:18;;;;;;;3.20;2.65;;;16.40;36.60;;;;;;7315275;32;20176;-61
2022/03/10 15:19:20;;;;;;;5.25;3.10;;;16.30;36.60;;;;;;7314294;32;20187;-62
2022/03/10 15:23:21;;;;;;;5.32;2.97;;;16.20;37.00;;;;;;7308708;32;21069;-61
2022/03/10 15:27:23;;;;;;;4.60;2.87;;;15.90;36.50;;;;;;7317566;32;20179;-62
2022/03/10 15:31:25;;;;;;;6.40;3.37;;;15.80;37.40;;;;;;7310477;32;20199;-61
2022/03/10 15:35:28;;;;;;;4.37;3.22;;;15.70;38.30;;;;;;7307324;32;20182;-59
2022/03/10 15:39:33;;;;;;;3.92;3.37;;;15.60;38.70;;;;;;7313342;32;20107;-60
2022/03/10 15:43:37;;;;;;;5.32;3.70;;;15.50;39.50;;;;;;7314964;32;20683;-62
2022/03/10 15:47:42;;;;;;;5.68;3.72;;;15.10;39.60;;;;;;7302900;32;20220;-62
2022/03/10 15:51:51;;;;;;;4.62;3.10;;;14.90;40.60;;;;;;7299808;32;20606;-60
2022/03/10 15:55:57;;;;;;;6.00;2.97;;;14.80;40.60;;;;;;7302541;32;20166;-62
2022/03/10 16:00:00;;;;;;;4.25;3.05;;;14.80;41.30;;;;;;7308788;32;20578;-63
2022/03/10 16:04:07;;;;;;;5.62;3.10;;;14.70;41.70;;;;;;7315460;32;20104;-61
2022/03/10 16:08:08;;;;;;;5.75;3.15;;;14.70;42.50;;;;;;7310849;32;20107;-62
2022/03/10 16:12:10;;;;;;;4.97;3.22;;;14.60;42.20;;;;;;7312724;32;20993;-60
2022/03/10 16:16:14;;;;;;;5.82;2.80;;;14.60;42.70;;;;;;7305395;32;20489;-60
2022/03/10 16:20:16;;;;;;;5.87;3.28;;;14.40;44.00;;;;;;7309359;32;20469;-61
2022/03/10 16:24:18;;;;;;;5.00;2.60;;;14.20;43.90;;;;;;7310397;32;20103;-62
2022/03/10 16:28:22;;;;;;;4.90;3.15;;;14.10;43.40;;;;;;7309180;32;20233;-61
2022/03/10 16:32:23;;;;;;;5.22;2.95;;;14.10;43.10;;;;;;7310850;32;20579;-61
2022/03/10 16:36:27;;;;;;;5.15;3.00;;;13.90;42.50;;;;;;7309621;32;20172;-60
2022/03/10 16:40:28;;;;;;;5.37;2.72;;;13.90;43.50;;;;;;7307246;32;20220;-60
2022/03/10 16:44:30;;;;;;;3.65;2.50;;;13.80;43.20;;;;;;7303617;32;20252;-61
2022/03/10 16:48:32;;;;;;;5.53;2.70;;;13.50;44.30;;;;;;7308790;32;20222;-61
2022/03/10 16:52:34;;;;;;;4.28;2.50;;;13.30;44.60;;;;;;7310567;32;20111;-61
2022/03/10 16:56:37;;;;;;;4.78;2.50;;;13.30;44.80;;;;;;7315323;32;20153;-61
2022/03/10 17:00:39;;;;;;;3.15;2.30;;;13.20;44.50;;;;;;7310728;32;20136;-61
2022/03/10 17:04:42;;;;;;;6.35;2.58;;;13.00;45.50;;;;;;7306478;32;20136;-61
2022/03/10 17:08:44;;;;;;;3.45;2.20;;;12.80;45.60;;;;;;7319020;32;20822;-61
2022/03/10 17:12:46;;;;;;;4.80;2.50;;;12.60;45.60;;;;;;7314536;32;20115;-61
2022/03/10 17:16:48;;;;;;;4.05;1.95;;;12.60;45.90;;;;;;7315883;32;20148;-61
2022/03/10 17:20:57;;;;;;;4.75;2.20;;;12.40;45.40;;;;;;7312013;32;20176;-60
2022/03/10 17:25:00;;;;;;;4.07;2.10;;;12.20;45.80;;;;;;7309935;32;20179;-60
2022/03/10 17:29:06;;;;;;;3.37;1.80;;;12.00;46.40;;;;;;7306526;32;20108;-60
2022/03/10 17:33:07;;;;;;;4.75;2.40;;;11.80;46.90;;;;;;7308033;32;20724;-62
2022/03/10 17:37:09;;;;;;;4.25;2.33;;;11.50;47.70;;;;;;7306133;32;20126;-62
2022/03/10 17:41:11;;;;;;;3.70;2.10;;;11.30;48.60;;;;;;7315472;32;20345;-60
2022/03/10 17:45:13;;;;;;;4.95;2.87;;;11.10;49.30;;;;;;7311280;32;20107;-60
2022/03/10 17:49:15;;;;;;;13.18;7.57;;;11.00;50.30;;;;;;7313269;32;20132;-61
2022/03/10 17:53:17;;;;;;;8.30;3.67;;;10.60;52.80;;;;;;7308747;32;20278;-60
2022/03/10 17:57:19;;;;;;;4.25;2.37;;;10.30;54.20;;;;;;7313324;32;20127;-59
2022/03/10 18:01:21;;;;;;;3.42;2.22;;;10.00;56.30;;;;;;7310232;32;20260;-59
2022/03/10 18:05:23;;;;;;;5.57;2.75;;;9.60;58.00;;;;;;7307520;32;20115;-61
2022/03/10 18:09:27;;;;;;;7.85;2.40;;;9.40;59.90;;;;;;7308572;32;20104;-61
2022/03/10 18:13:29;;;;;;;5.82;2.20;;;9.00;63.60;;;;;;7312685;32;20127;-61
2022/03/10 18:17:31;;;;;;;7.30;2.70;;;8.70;69.40;;;;;;7313454;32;20205;-61
2022/03/10 18:21:38;;;;;;;15.40;3.42;;;8.50;73.10;;;;;;7309822;32;20646;-61
2022/03/10 18:25:40;;;;;;;9.68;5.07;;;8.10;79.20;;;;;;7306069;32;20177;-61
2022/03/10 18:29:42;;;;;;;9.38;4.22;;;7.90;85.00;;;;;;7306253;32;20133;-60
2022/03/10 18:33:44;;;;;;;5.82;2.28;;;7.60;92.40;;;;;;7309000;32;20130;-60
2022/03/10 18:37:46;;;;;;;5.35;2.62;;;7.40;95.60;;;;;;7309671;32;20567;-60
2022/03/10 18:41:47;;;;;;;4.45;2.53;;;7.20;99.30;;;;;;7303746;32;20112;-62
2022/03/10 18:45:51;;;;;;;8.27;2.42;;;7.00;99.90;;;;;;7308641;32;20221;-63
2022/03/10 18:49:53;;;;;;;6.85;2.40;;;6.80;99.90;;;;;;7316547;32;20104;-61
2022/03/10 18:53:55;;;;;;;6.95;2.72;;;6.70;99.90;;;;;;7305373;32;20203;-62
2022/03/10 18:57:57;;;;;;;9.00;2.80;;;6.60;99.90;;;;;;7311815;32;20569;-63
2022/03/10 19:01:59;;;;;;;5.95;3.15;;;6.50;99.90;;;;;;7307516;32;20699;-61
2022/03/10 19:06:01;;;;;;;8.20;3.65;;;6.40;99.90;;;;;;7315962;32;20298;-61
2022/03/10 19:10:03;;;;;;;14.60;7.60;;;6.40;99.90;;;;;;7307073;32;20149;-61
2022/03/10 19:14:05;;;;;;;9.80;5.55;;;6.50;99.90;;;;;;7315839;32;20644;-61
2022/03/10 19:18:06;;;;;;;7.45;4.35;;;6.40;99.90;;;;;;7306732;32;20103;-61
2022/03/10 19:22:08;;;;;;;7.45;3.67;;;6.40;99.90;;;;;;7309607;32;20854;-61
2022/03/10 19:26:10;;;;;;;7.82;3.30;;;6.40;99.90;;;;;;7313134;32;20103;-60
2022/03/10 19:30:13;;;;;;;8.02;3.50;;;6.10;99.90;;;;;;7302000;32;20870;-61
2022/03/10 19:34:14;;;;;;;8.48;4.20;;;5.90;99.90;;;;;;7313143;32;20207;-62
2022/03/10 19:38:16;;;;;;;9.88;3.87;;;5.70;99.90;;;;;;7314471;32;20112;-61
2022/03/10 19:42:19;;;;;;;11.57;3.72;;;5.50;99.90;;;;;;7315817;32;20198;-63
2022/03/10 19:46:20;;;;;;;8.02;3.65;;;5.30;99.90;;;;;;7312199;32;20634;-61
2022/03/10 19:50:22;;;;;;;8.35;3.33;;;5.20;99.90;;;;;;7319842;32;20108;-63
2022/03/10 19:54:24;;;;;;;7.55;3.60;;;5.00;99.90;;;;;;7313687;32;20219;-63
2022/03/10 19:58:26;;;;;;;8.07;3.55;;;4.70;99.90;;;;;;7317164;32;20238;-61
2022/03/10 20:02:28;;;;;;;7.12;3.65;;;4.60;99.90;;;;;;7316386;32;20111;-61
2022/03/10 20:06:33;;;;;;;7.12;3.67;;;4.40;99.90;;;;;;7312137;32;20850;-62
2022/03/10 20:10:35;;;;;;;11.32;4.20;;;4.30;99.90;;;;;;7315192;32;20131;-61
2022/03/10 20:14:38;;;;;;;7.80;3.87;;;4.30;99.90;;;;;;7317238;32;20202;-62
2022/03/10 20:18:39;;;;;;;7.85;4.50;;;4.20;99.90;;;;;;7315380;32;20108;-62
2022/03/10 20:22:44;;;;;;;8.95;5.07;;;4.30;99.90;;;;;;7313949;32;20221;-62
2022/03/10 20:26:45;;;;;;;11.20;4.45;;;4.30;99.90;;;;;;7316194;32;20780;-62
2022/03/10 20:30:47;;;;;;;7.45;4.00;;;4.20;99.90;;;;;;7317163;32;20674;-63
2022/03/10 20:34:50;;;;;;;7.50;3.92;;;4.10;99.90;;;;;;7313340;32;20820;-64
2022/03/10 20:38:52;;;;;;;12.10;4.68;;;4.10;99.90;;;;;;7309703;32;20104;-62
2022/03/10 20:42:54;;;;;;;18.15;8.75;;;4.10;99.90;;;;;;7314735;32;20107;-62
2022/03/10 20:46:56;;;;;;;9.25;5.25;;;4.00;99.90;;;;;;7311731;32;20115;-62
2022/03/10 20:50:57;;;;;;;9.93;4.85;;;4.00;99.90;;;;;;7311869;32;20610;-62
2022/03/10 20:54:59;;;;;;;12.00;5.60;;;4.00;99.90;;;;;;7312139;32;20456;-63
2022/03/10 20:59:01;;;;;;;16.75;5.68;;;4.10;99.90;;;;;;7314017;32;20206;-62